sensor_id;sensor_type;location;lat;lon;timestamp;P1;durP1;ratioP1;P2;durP2;ratioP2
24547;SDS011;12713;51.624;4.924;2023-04-03T00:01:38;17.83;;;11.30;;
24547;SDS011;12713;51.624;4.924;2023-04-03T00:04:05;16.30;;;10.82;;
24547;SDS011;12713;51.624;4.924;2023-04-03T00:06:31;15.93;;;10.82;;
24547;SDS011;12713;51.624;4.924;2023-04-03T00:08:57;15.40;;;11.55;;
24547;SDS011;12713;51.624;4.924;2023-04-03T00:11:24;14.40;;;10.48;;
24547;SDS011;12713;51.624;4.924;2023-04-03T00:13:52;14.27;;;10.45;;
24547;SDS011;12713;51.624;4.924;2023-04-03T00:16:19;11.18;;;9.23;;
24547;SDS011;12713;51.624;4.924;2023-04-03T00:18:45;12.25;;;8.98;;
24547;SDS011;12713;51.624;4.924;2023-04-03T00:21:12;11.20;;;9.13;;
24547;SDS011;12713;51.624;4.924;2023-04-03T00:23:38;11.70;;;8.25;;
24547;SDS011;12713;51.624;4.924;2023-04-03T00:26:05;12.80;;;8.38;;
24547;SDS011;12713;51.624;4.924;2023-04-03T00:28:31;10.63;;;8.20;;
24547;SDS011;12713;51.624;4.924;2023-04-03T00:30:58;9.80;;;7.35;;
24547;SDS011;12713;51.624;4.924;2023-04-03T00:33:24;9.98;;;7.80;;
24547;SDS011;12713;51.624;4.924;2023-04-03T00:35:50;11.18;;;7.90;;
24547;SDS011;12713;51.624;4.924;2023-04-03T00:38:17;8.88;;;7.32;;
24547;SDS011;12713;51.624;4.924;2023-04-03T00:40:44;8.70;;;6.70;;
24547;SDS011;12713;51.624;4.924;2023-04-03T00:43:18;7.13;;;6.05;;
24547;SDS011;12713;51.624;4.924;2023-04-03T00:45:46;9.20;;;6.30;;
24547;SDS011;12713;51.624;4.924;2023-04-03T00:48:17;6.95;;;5.82;;
24547;SDS011;12713;51.624;4.924;2023-04-03T00:50:44;10.30;;;6.30;;
24547;SDS011;12713;51.624;4.924;2023-04-03T00:53:12;7.05;;;5.25;;
24547;SDS011;12713;51.624;4.924;2023-04-03T00:55:38;8.63;;;5.90;;
24547;SDS011;12713;51.624;4.924;2023-04-03T00:58:05;8.82;;;5.70;;
24547;SDS011;12713;51.624;4.924;2023-04-03T01:00:32;7.85;;;5.40;;
24547;SDS011;12713;51.624;4.924;2023-04-03T01:02:58;9.23;;;5.10;;
24547;SDS011;12713;51.624;4.924;2023-04-03T01:05:24;7.05;;;4.93;;
24547;SDS011;12713;51.624;4.924;2023-04-03T01:07:50;7.75;;;5.28;;
24547;SDS011;12713;51.624;4.924;2023-04-03T01:10:17;4.80;;;4.22;;
24547;SDS011;12713;51.624;4.924;2023-04-03T01:12:46;5.68;;;4.10;;
24547;SDS011;12713;51.624;4.924;2023-04-03T01:15:20;5.15;;;4.38;;
24547;SDS011;12713;51.624;4.924;2023-04-03T01:17:49;9.27;;;4.70;;
24547;SDS011;12713;51.624;4.924;2023-04-03T01:26:08;9.18;;;4.18;;
24547;SDS011;12713;51.624;4.924;2023-04-03T01:28:31;6.82;;;4.20;;
24547;SDS011;12713;51.624;4.924;2023-04-03T01:33:42;7.95;;;4.22;;
24547;SDS011;12713;51.624;4.924;2023-04-03T01:36:09;4.95;;;3.97;;
24547;SDS011;12713;51.624;4.924;2023-04-03T01:38:35;6.93;;;4.38;;
24547;SDS011;12713;51.624;4.924;2023-04-03T01:41:01;6.93;;;4.07;;
24547;SDS011;12713;51.624;4.924;2023-04-03T01:43:27;6.80;;;4.18;;
24547;SDS011;12713;51.624;4.924;2023-04-03T01:45:53;11.55;;;3.97;;
24547;SDS011;12713;51.624;4.924;2023-04-03T01:48:19;6.95;;;3.92;;
24547;SDS011;12713;51.624;4.924;2023-04-03T01:50:46;7.90;;;4.20;;
24547;SDS011;12713;51.624;4.924;2023-04-03T01:53:13;7.57;;;4.15;;
24547;SDS011;12713;51.624;4.924;2023-04-03T01:55:42;5.43;;;3.88;;
24547;SDS011;12713;51.624;4.924;2023-04-03T01:58:09;7.93;;;4.38;;
24547;SDS011;12713;51.624;4.924;2023-04-03T02:00:35;5.07;;;3.75;;
24547;SDS011;12713;51.624;4.924;2023-04-03T02:03:01;5.43;;;3.83;;
24547;SDS011;12713;51.624;4.924;2023-04-03T02:05:27;5.30;;;3.42;;
24547;SDS011;12713;51.624;4.924;2023-04-03T02:07:53;6.43;;;4.05;;
24547;SDS011;12713;51.624;4.924;2023-04-03T02:10:19;4.97;;;3.88;;
24547;SDS011;12713;51.624;4.924;2023-04-03T02:12:45;5.53;;;3.65;;
24547;SDS011;12713;51.624;4.924;2023-04-03T02:15:11;7.82;;;4.28;;
24547;SDS011;12713;51.624;4.924;2023-04-03T02:17:37;5.93;;;4.10;;
24547;SDS011;12713;51.624;4.924;2023-04-03T02:20:04;8.88;;;3.92;;
24547;SDS011;12713;51.624;4.924;2023-04-03T02:22:30;6.70;;;3.83;;
24547;SDS011;12713;51.624;4.924;2023-04-03T02:24:56;9.32;;;3.83;;
24547;SDS011;12713;51.624;4.924;2023-04-03T02:27:22;8.73;;;4.53;;
24547;SDS011;12713;51.624;4.924;2023-04-03T02:29:48;7.97;;;3.67;;
24547;SDS011;12713;51.624;4.924;2023-04-03T02:32:14;6.10;;;3.67;;
24547;SDS011;12713;51.624;4.924;2023-04-03T02:34:40;6.18;;;3.53;;
24547;SDS011;12713;51.624;4.924;2023-04-03T02:37:06;10.52;;;4.30;;
24547;SDS011;12713;51.624;4.924;2023-04-03T02:39:32;6.32;;;4.10;;
24547;SDS011;12713;51.624;4.924;2023-04-03T02:41:58;6.95;;;4.10;;
24547;SDS011;12713;51.624;4.924;2023-04-03T02:44:24;5.47;;;3.75;;
24547;SDS011;12713;51.624;4.924;2023-04-03T02:46:50;6.55;;;3.83;;
24547;SDS011;12713;51.624;4.924;2023-04-03T02:49:16;5.88;;;4.13;;
24547;SDS011;12713;51.624;4.924;2023-04-03T02:51:42;5.45;;;3.85;;
24547;SDS011;12713;51.624;4.924;2023-04-03T02:54:08;7.80;;;4.15;;
24547;SDS011;12713;51.624;4.924;2023-04-03T02:56:35;5.10;;;3.88;;
24547;SDS011;12713;51.624;4.924;2023-04-03T02:59:01;7.47;;;4.13;;
24547;SDS011;12713;51.624;4.924;2023-04-03T03:01:27;10.68;;;3.70;;
24547;SDS011;12713;51.624;4.924;2023-04-03T03:03:56;9.23;;;4.07;;
24547;SDS011;12713;51.624;4.924;2023-04-03T03:06:22;6.53;;;3.75;;
24547;SDS011;12713;51.624;4.924;2023-04-03T03:08:48;8.23;;;4.28;;
24547;SDS011;12713;51.624;4.924;2023-04-03T03:11:15;6.82;;;4.40;;
24547;SDS011;12713;51.624;4.924;2023-04-03T03:13:41;5.18;;;3.80;;
24547;SDS011;12713;51.624;4.924;2023-04-03T03:16:07;8.60;;;4.20;;
24547;SDS011;12713;51.624;4.924;2023-04-03T03:18:33;4.93;;;3.78;;
24547;SDS011;12713;51.624;4.924;2023-04-03T03:20:59;5.82;;;4.00;;
24547;SDS011;12713;51.624;4.924;2023-04-03T03:23:26;6.75;;;3.88;;
24547;SDS011;12713;51.624;4.924;2023-04-03T03:25:56;6.00;;;4.47;;
24547;SDS011;12713;51.624;4.924;2023-04-03T03:28:22;11.50;;;3.90;;
24547;SDS011;12713;51.624;4.924;2023-04-03T03:30:48;8.75;;;4.57;;
24547;SDS011;12713;51.624;4.924;2023-04-03T03:33:14;6.63;;;3.83;;
24547;SDS011;12713;51.624;4.924;2023-04-03T03:35:42;8.05;;;4.38;;
24547;SDS011;12713;51.624;4.924;2023-04-03T03:38:08;8.30;;;4.60;;
24547;SDS011;12713;51.624;4.924;2023-04-03T03:40:34;8.40;;;5.00;;
24547;SDS011;12713;51.624;4.924;2023-04-03T03:43:00;7.65;;;4.20;;
24547;SDS011;12713;51.624;4.924;2023-04-03T03:45:26;6.88;;;4.03;;
24547;SDS011;12713;51.624;4.924;2023-04-03T03:47:52;10.60;;;4.82;;
24547;SDS011;12713;51.624;4.924;2023-04-03T03:50:18;7.38;;;3.90;;
24547;SDS011;12713;51.624;4.924;2023-04-03T03:52:45;5.55;;;4.18;;
24547;SDS011;12713;51.624;4.924;2023-04-03T03:55:11;7.03;;;5.13;;
24547;SDS011;12713;51.624;4.924;2023-04-03T03:57:37;6.78;;;4.03;;
24547;SDS011;12713;51.624;4.924;2023-04-03T04:00:03;6.80;;;4.40;;
24547;SDS011;12713;51.624;4.924;2023-04-03T04:02:32;5.38;;;3.70;;
24547;SDS011;12713;51.624;4.924;2023-04-03T04:04:58;5.78;;;3.95;;
24547;SDS011;12713;51.624;4.924;2023-04-03T04:07:24;6.65;;;4.00;;
24547;SDS011;12713;51.624;4.924;2023-04-03T04:09:53;9.43;;;3.90;;
24547;SDS011;12713;51.624;4.924;2023-04-03T04:12:19;7.53;;;4.25;;
24547;SDS011;12713;51.624;4.924;2023-04-03T04:14:45;7.10;;;4.22;;
24547;SDS011;12713;51.624;4.924;2023-04-03T04:17:12;5.63;;;3.70;;
24547;SDS011;12713;51.624;4.924;2023-04-03T04:19:38;8.90;;;4.22;;
24547;SDS011;12713;51.624;4.924;2023-04-03T04:22:04;6.20;;;3.85;;
24547;SDS011;12713;51.624;4.924;2023-04-03T04:24:30;6.95;;;4.00;;
24547;SDS011;12713;51.624;4.924;2023-04-03T04:26:56;6.40;;;4.10;;
24547;SDS011;12713;51.624;4.924;2023-04-03T04:29:22;9.50;;;4.03;;
24547;SDS011;12713;51.624;4.924;2023-04-03T04:31:48;8.48;;;3.92;;
24547;SDS011;12713;51.624;4.924;2023-04-03T04:34:14;7.93;;;4.55;;
24547;SDS011;12713;51.624;4.924;2023-04-03T04:36:40;7.38;;;4.32;;
24547;SDS011;12713;51.624;4.924;2023-04-03T04:39:06;6.10;;;3.75;;
24547;SDS011;12713;51.624;4.924;2023-04-03T04:41:32;6.45;;;3.83;;
24547;SDS011;12713;51.624;4.924;2023-04-03T04:43:59;6.28;;;4.18;;
24547;SDS011;12713;51.624;4.924;2023-04-03T04:46:25;7.82;;;3.80;;
24547;SDS011;12713;51.624;4.924;2023-04-03T04:48:51;7.53;;;4.00;;
24547;SDS011;12713;51.624;4.924;2023-04-03T04:51:17;7.03;;;3.85;;
24547;SDS011;12713;51.624;4.924;2023-04-03T04:53:43;7.70;;;3.90;;
24547;SDS011;12713;51.624;4.924;2023-04-03T04:56:10;6.10;;;3.85;;
24547;SDS011;12713;51.624;4.924;2023-04-03T04:58:36;6.55;;;3.80;;
24547;SDS011;12713;51.624;4.924;2023-04-03T05:01:03;7.90;;;3.83;;
24547;SDS011;12713;51.624;4.924;2023-04-03T05:03:29;6.25;;;4.00;;
24547;SDS011;12713;51.624;4.924;2023-04-03T05:05:55;5.63;;;3.85;;
24547;SDS011;12713;51.624;4.924;2023-04-03T05:08:21;7.10;;;3.95;;
24547;SDS011;12713;51.624;4.924;2023-04-03T05:10:47;6.10;;;3.78;;
24547;SDS011;12713;51.624;4.924;2023-04-03T05:13:14;9.43;;;3.85;;
24547;SDS011;12713;51.624;4.924;2023-04-03T05:15:40;8.45;;;4.30;;
24547;SDS011;12713;51.624;4.924;2023-04-03T05:18:06;6.60;;;4.10;;
24547;SDS011;12713;51.624;4.924;2023-04-03T05:20:32;5.22;;;3.83;;
24547;SDS011;12713;51.624;4.924;2023-04-03T05:22:59;6.75;;;3.88;;
24547;SDS011;12713;51.624;4.924;2023-04-03T05:25:26;7.40;;;3.65;;
24547;SDS011;12713;51.624;4.924;2023-04-03T05:27:52;8.70;;;4.00;;
24547;SDS011;12713;51.624;4.924;2023-04-03T05:30:18;6.57;;;3.50;;
24547;SDS011;12713;51.624;4.924;2023-04-03T05:32:44;8.35;;;4.00;;
24547;SDS011;12713;51.624;4.924;2023-04-03T05:35:10;9.27;;;3.97;;
24547;SDS011;12713;51.624;4.924;2023-04-03T05:37:37;8.63;;;3.28;;
24547;SDS011;12713;51.624;4.924;2023-04-03T05:40:03;11.68;;;4.25;;
24547;SDS011;12713;51.624;4.924;2023-04-03T05:42:30;10.88;;;4.82;;
24547;SDS011;12713;51.624;4.924;2023-04-03T05:44:56;5.82;;;4.03;;
24547;SDS011;12713;51.624;4.924;2023-04-03T05:47:22;7.43;;;4.82;;
24547;SDS011;12713;51.624;4.924;2023-04-03T05:49:48;6.78;;;4.10;;
24547;SDS011;12713;51.624;4.924;2023-04-03T05:52:22;7.65;;;3.28;;
24547;SDS011;12713;51.624;4.924;2023-04-03T05:54:48;7.25;;;4.10;;
24547;SDS011;12713;51.624;4.924;2023-04-03T05:57:15;6.65;;;3.80;;
24547;SDS011;12713;51.624;4.924;2023-04-03T05:59:41;10.40;;;4.20;;
24547;SDS011;12713;51.624;4.924;2023-04-03T06:02:10;9.18;;;4.35;;
24547;SDS011;12713;51.624;4.924;2023-04-03T06:04:36;7.57;;;3.92;;
24547;SDS011;12713;51.624;4.924;2023-04-03T06:07:02;6.72;;;4.10;;
24547;SDS011;12713;51.624;4.924;2023-04-03T06:09:28;7.30;;;4.05;;
24547;SDS011;12713;51.624;4.924;2023-04-03T06:11:54;15.30;;;5.95;;
24547;SDS011;12713;51.624;4.924;2023-04-03T06:14:21;9.43;;;4.53;;
24547;SDS011;12713;51.624;4.924;2023-04-03T06:16:47;7.43;;;4.15;;
24547;SDS011;12713;51.624;4.924;2023-04-03T06:19:13;7.97;;;4.30;;
24547;SDS011;12713;51.624;4.924;2023-04-03T06:21:39;5.35;;;3.83;;
24547;SDS011;12713;51.624;4.924;2023-04-03T06:24:08;9.45;;;3.95;;
24547;SDS011;12713;51.624;4.924;2023-04-03T06:26:35;9.48;;;4.55;;
24547;SDS011;12713;51.624;4.924;2023-04-03T06:29:01;10.30;;;5.05;;
24547;SDS011;12713;51.624;4.924;2023-04-03T06:31:27;9.35;;;3.65;;
24547;SDS011;12713;51.624;4.924;2023-04-03T06:33:53;7.82;;;4.45;;
24547;SDS011;12713;51.624;4.924;2023-04-03T06:36:20;6.88;;;3.92;;
24547;SDS011;12713;51.624;4.924;2023-04-03T06:38:47;10.18;;;4.03;;
24547;SDS011;12713;51.624;4.924;2023-04-03T06:41:13;7.05;;;3.38;;
24547;SDS011;12713;51.624;4.924;2023-04-03T06:43:45;5.45;;;3.33;;
24547;SDS011;12713;51.624;4.924;2023-04-03T06:46:18;9.38;;;3.70;;
24547;SDS011;12713;51.624;4.924;2023-04-03T06:48:45;6.78;;;4.10;;
24547;SDS011;12713;51.624;4.924;2023-04-03T06:51:24;8.20;;;3.65;;
24547;SDS011;12713;51.624;4.924;2023-04-03T06:53:52;5.82;;;3.40;;
24547;SDS011;12713;51.624;4.924;2023-04-03T06:56:19;8.35;;;3.70;;
24547;SDS011;12713;51.624;4.924;2023-04-03T06:58:45;9.00;;;3.50;;
24547;SDS011;12713;51.624;4.924;2023-04-03T07:01:12;9.15;;;3.75;;
24547;SDS011;12713;51.624;4.924;2023-04-03T07:03:38;9.82;;;3.88;;
24547;SDS011;12713;51.624;4.924;2023-04-03T07:06:05;8.77;;;3.10;;
24547;SDS011;12713;51.624;4.924;2023-04-03T07:08:32;5.97;;;3.08;;
24547;SDS011;12713;51.624;4.924;2023-04-03T07:10:58;8.38;;;2.83;;
24547;SDS011;12713;51.624;4.924;2023-04-03T07:13:24;7.35;;;2.88;;
24547;SDS011;12713;51.624;4.924;2023-04-03T07:15:51;7.70;;;3.05;;
24547;SDS011;12713;51.624;4.924;2023-04-03T07:18:17;9.95;;;2.90;;
24547;SDS011;12713;51.624;4.924;2023-04-03T07:20:43;5.85;;;3.20;;
24547;SDS011;12713;51.624;4.924;2023-04-03T07:23:10;8.38;;;2.42;;
24547;SDS011;12713;51.624;4.924;2023-04-03T07:25:36;6.85;;;2.72;;
24547;SDS011;12713;51.624;4.924;2023-04-03T07:28:02;7.80;;;2.83;;
24547;SDS011;12713;51.624;4.924;2023-04-03T07:30:29;7.05;;;2.67;;
24547;SDS011;12713;51.624;4.924;2023-04-03T07:32:55;6.50;;;2.75;;
24547;SDS011;12713;51.624;4.924;2023-04-03T07:35:21;7.15;;;2.42;;
24547;SDS011;12713;51.624;4.924;2023-04-03T07:37:47;5.88;;;2.58;;
24547;SDS011;12713;51.624;4.924;2023-04-03T07:40:13;7.75;;;3.28;;
24547;SDS011;12713;51.624;4.924;2023-04-03T07:42:39;6.88;;;2.60;;
24547;SDS011;12713;51.624;4.924;2023-04-03T07:45:05;9.43;;;2.70;;
24547;SDS011;12713;51.624;4.924;2023-04-03T07:47:31;8.65;;;2.70;;
24547;SDS011;12713;51.624;4.924;2023-04-03T07:49:57;5.07;;;2.22;;
24547;SDS011;12713;51.624;4.924;2023-04-03T07:52:23;9.05;;;2.50;;
24547;SDS011;12713;51.624;4.924;2023-04-03T07:54:50;4.95;;;2.30;;
24547;SDS011;12713;51.624;4.924;2023-04-03T07:57:16;7.38;;;2.85;;
24547;SDS011;12713;51.624;4.924;2023-04-03T07:59:42;4.28;;;2.28;;
24547;SDS011;12713;51.624;4.924;2023-04-03T08:02:12;11.65;;;2.78;;
24547;SDS011;12713;51.624;4.924;2023-04-03T08:04:38;8.48;;;2.90;;
24547;SDS011;12713;51.624;4.924;2023-04-03T08:07:04;4.88;;;2.50;;
24547;SDS011;12713;51.624;4.924;2023-04-03T08:09:30;4.85;;;1.90;;
24547;SDS011;12713;51.624;4.924;2023-04-03T08:11:57;10.52;;;2.22;;
24547;SDS011;12713;51.624;4.924;2023-04-03T08:14:23;4.35;;;1.95;;
24547;SDS011;12713;51.624;4.924;2023-04-03T08:16:49;5.22;;;2.20;;
24547;SDS011;12713;51.624;4.924;2023-04-03T08:19:16;9.93;;;2.58;;
24547;SDS011;12713;51.624;4.924;2023-04-03T08:21:43;7.63;;;2.38;;
24547;SDS011;12713;51.624;4.924;2023-04-03T08:24:10;4.57;;;1.88;;
24547;SDS011;12713;51.624;4.924;2023-04-03T08:26:37;7.90;;;1.92;;
24547;SDS011;12713;51.624;4.924;2023-04-03T08:29:03;4.72;;;1.85;;
24547;SDS011;12713;51.624;4.924;2023-04-03T08:31:29;5.68;;;2.30;;
24547;SDS011;12713;51.624;4.924;2023-04-03T08:33:56;6.07;;;2.28;;
24547;SDS011;12713;51.624;4.924;2023-04-03T08:36:23;4.75;;;2.10;;
24547;SDS011;12713;51.624;4.924;2023-04-03T08:38:51;16.88;;;7.00;;
24547;SDS011;12713;51.624;4.924;2023-04-03T08:52:12;7.03;;;1.90;;
24547;SDS011;12713;51.624;4.924;2023-04-03T08:55:01;4.68;;;2.35;;
24547;SDS011;12713;51.624;4.924;2023-04-03T08:57:28;6.70;;;2.00;;
24547;SDS011;12713;51.624;4.924;2023-04-03T08:59:55;5.70;;;1.95;;
24547;SDS011;12713;51.624;4.924;2023-04-03T09:02:31;3.47;;;1.75;;
24547;SDS011;12713;51.624;4.924;2023-04-03T09:04:58;3.85;;;1.55;;
24547;SDS011;12713;51.624;4.924;2023-04-03T09:07:29;5.70;;;1.60;;
24547;SDS011;12713;51.624;4.924;2023-04-03T09:09:57;4.35;;;1.75;;
24547;SDS011;12713;51.624;4.924;2023-04-03T09:12:34;6.47;;;1.88;;
24547;SDS011;12713;51.624;4.924;2023-04-03T09:15:05;5.60;;;1.70;;
24547;SDS011;12713;51.624;4.924;2023-04-03T09:17:41;1.77;;;1.27;;
24547;SDS011;12713;51.624;4.924;2023-04-03T09:22:54;3.58;;;1.27;;
24547;SDS011;12713;51.624;4.924;2023-04-03T09:25:31;3.20;;;1.10;;
24547;SDS011;12713;51.624;4.924;2023-04-03T09:27:59;2.10;;;1.17;;
24547;SDS011;12713;51.624;4.924;2023-04-03T09:30:26;2.17;;;1.10;;
24547;SDS011;12713;51.624;4.924;2023-04-03T09:32:53;2.20;;;1.20;;
24547;SDS011;12713;51.624;4.924;2023-04-03T09:37:50;4.82;;;0.80;;
24547;SDS011;12713;51.624;4.924;2023-04-03T09:42:48;2.95;;;1.17;;
24547;SDS011;12713;51.624;4.924;2023-04-03T09:50:51;2.90;;;1.10;;
24547;SDS011;12713;51.624;4.924;2023-04-03T09:53:37;1.65;;;1.00;;
24547;SDS011;12713;51.624;4.924;2023-04-03T09:56:09;1.93;;;0.80;;
24547;SDS011;12713;51.624;4.924;2023-04-03T10:01:21;2.42;;;0.88;;
24547;SDS011;12713;51.624;4.924;2023-04-03T10:03:50;1.50;;;0.93;;
24547;SDS011;12713;51.624;4.924;2023-04-03T10:06:29;2.58;;;1.00;;
24547;SDS011;12713;51.624;4.924;2023-04-03T10:09:00;1.80;;;0.80;;
24547;SDS011;12713;51.624;4.924;2023-04-03T10:11:29;2.10;;;1.05;;
24547;SDS011;12713;51.624;4.924;2023-04-03T10:13:56;2.75;;;0.85;;
24547;SDS011;12713;51.624;4.924;2023-04-03T10:16:25;4.57;;;1.27;;
24547;SDS011;12713;51.624;4.924;2023-04-03T10:21:45;2.00;;;0.60;;
24547;SDS011;12713;51.624;4.924;2023-04-03T10:24:28;2.20;;;0.70;;
24547;SDS011;12713;51.624;4.924;2023-04-03T10:26:58;2.75;;;0.85;;
24547;SDS011;12713;51.624;4.924;2023-04-03T10:32:07;1.70;;;1.05;;
24547;SDS011;12713;51.624;4.924;2023-04-03T10:34:41;1.67;;;1.15;;
24547;SDS011;12713;51.624;4.924;2023-04-03T10:37:21;2.03;;;1.10;;
24547;SDS011;12713;51.624;4.924;2023-04-03T10:39:54;1.40;;;0.70;;
24547;SDS011;12713;51.624;4.924;2023-04-03T10:47:25;1.85;;;0.77;;
24547;SDS011;12713;51.624;4.924;2023-04-03T10:52:35;3.53;;;0.85;;
24547;SDS011;12713;51.624;4.924;2023-04-03T10:55:21;1.75;;;0.80;;
24547;SDS011;12713;51.624;4.924;2023-04-03T10:57:50;2.72;;;1.13;;
24547;SDS011;12713;51.624;4.924;2023-04-03T11:00:20;1.80;;;0.90;;
24547;SDS011;12713;51.624;4.924;2023-04-03T11:02:54;2.22;;;0.90;;
24547;SDS011;12713;51.624;4.924;2023-04-03T11:05:26;3.80;;;0.95;;
24547;SDS011;12713;51.624;4.924;2023-04-03T11:07:55;3.00;;;0.80;;
24547;SDS011;12713;51.624;4.924;2023-04-03T11:10:33;2.13;;;0.95;;
24547;SDS011;12713;51.624;4.924;2023-04-03T11:13:48;4.82;;;1.15;;
24547;SDS011;12713;51.624;4.924;2023-04-03T11:15:53;2.15;;;1.13;;
24547;SDS011;12713;51.624;4.924;2023-04-03T11:21:17;1.92;;;0.90;;
24547;SDS011;12713;51.624;4.924;2023-04-03T11:23:47;2.50;;;0.82;;
24547;SDS011;12713;51.624;4.924;2023-04-03T11:26:14;3.28;;;0.98;;
24547;SDS011;12713;51.624;4.924;2023-04-03T11:28:45;1.92;;;0.80;;
24547;SDS011;12713;51.624;4.924;2023-04-03T11:31:36;1.15;;;0.45;;
24547;SDS011;12713;51.624;4.924;2023-04-03T11:36:25;1.63;;;0.70;;
24547;SDS011;12713;51.624;4.924;2023-04-03T11:38:53;1.00;;;0.70;;
24547;SDS011;12713;51.624;4.924;2023-04-03T11:41:24;1.30;;;0.50;;
24547;SDS011;12713;51.624;4.924;2023-04-03T11:44:04;1.23;;;0.50;;
24547;SDS011;12713;51.624;4.924;2023-04-03T11:46:48;3.67;;;0.73;;
24547;SDS011;12713;51.624;4.924;2023-04-03T11:52:00;1.92;;;0.70;;
24547;SDS011;12713;51.624;4.924;2023-04-03T11:54:43;0.98;;;0.50;;
24547;SDS011;12713;51.624;4.924;2023-04-03T11:57:39;1.23;;;0.68;;
24547;SDS011;12713;51.624;4.924;2023-04-03T12:02:54;1.80;;;0.70;;
24547;SDS011;12713;51.624;4.924;2023-04-03T12:08:25;1.55;;;0.65;;
24547;SDS011;12713;51.624;4.924;2023-04-03T12:13:37;1.48;;;0.82;;
24547;SDS011;12713;51.624;4.924;2023-04-03T12:16:07;4.00;;;0.80;;
24547;SDS011;12713;51.624;4.924;2023-04-03T12:22:04;1.52;;;0.70;;
24547;SDS011;12713;51.624;4.924;2023-04-03T12:26:50;2.08;;;0.90;;
24547;SDS011;12713;51.624;4.924;2023-04-03T12:31:50;1.02;;;0.60;;
24547;SDS011;12713;51.624;4.924;2023-04-03T12:34:25;1.65;;;0.85;;
24547;SDS011;12713;51.624;4.924;2023-04-03T12:46:50;2.63;;;1.10;;
24547;SDS011;12713;51.624;4.924;2023-04-03T12:51:55;4.55;;;0.75;;
24547;SDS011;12713;51.624;4.924;2023-04-03T12:56:47;3.78;;;1.17;;
24547;SDS011;12713;51.624;4.924;2023-04-03T12:59:19;1.48;;;0.95;;
24547;SDS011;12713;51.624;4.924;2023-04-03T13:04:21;3.33;;;1.00;;
24547;SDS011;12713;51.624;4.924;2023-04-03T13:06:47;2.33;;;1.10;;
24547;SDS011;12713;51.624;4.924;2023-04-03T13:09:26;2.75;;;1.13;;
24547;SDS011;12713;51.624;4.924;2023-04-03T13:14:37;1.25;;;0.95;;
24547;SDS011;12713;51.624;4.924;2023-04-03T13:17:10;2.33;;;1.10;;
24547;SDS011;12713;51.624;4.924;2023-04-03T13:19:38;3.20;;;0.95;;
24547;SDS011;12713;51.624;4.924;2023-04-03T13:22:05;2.15;;;1.17;;
24547;SDS011;12713;51.624;4.924;2023-04-03T13:24:33;2.22;;;1.10;;
24547;SDS011;12713;51.624;4.924;2023-04-03T13:27:01;1.80;;;1.10;;
24547;SDS011;12713;51.624;4.924;2023-04-03T13:29:32;2.00;;;1.00;;
24547;SDS011;12713;51.624;4.924;2023-04-03T13:31:59;2.15;;;0.82;;
24547;SDS011;12713;51.624;4.924;2023-04-03T13:34:26;2.47;;;1.30;;
24547;SDS011;12713;51.624;4.924;2023-04-03T13:36:57;2.22;;;1.10;;
24547;SDS011;12713;51.624;4.924;2023-04-03T13:39:25;3.75;;;1.23;;
24547;SDS011;12713;51.624;4.924;2023-04-03T13:41:54;6.05;;;1.50;;
24547;SDS011;12713;51.624;4.924;2023-04-03T13:46:50;3.67;;;1.00;;
24547;SDS011;12713;51.624;4.924;2023-04-03T13:51:49;1.83;;;1.17;;
24547;SDS011;12713;51.624;4.924;2023-04-03T13:54:20;3.17;;;1.30;;
24547;SDS011;12713;51.624;4.924;2023-04-03T13:56:47;4.95;;;1.20;;
24547;SDS011;12713;51.624;4.924;2023-04-03T13:59:52;3.45;;;1.40;;
24547;SDS011;12713;51.624;4.924;2023-04-03T14:02:30;2.78;;;1.33;;
24547;SDS011;12713;51.624;4.924;2023-04-03T14:04:58;3.58;;;1.30;;
24547;SDS011;12713;51.624;4.924;2023-04-03T14:07:26;3.42;;;1.33;;
24547;SDS011;12713;51.624;4.924;2023-04-03T14:09:53;3.90;;;1.20;;
24547;SDS011;12713;51.624;4.924;2023-04-03T14:12:24;2.20;;;1.20;;
24547;SDS011;12713;51.624;4.924;2023-04-03T14:14:50;4.22;;;1.40;;
24547;SDS011;12713;51.624;4.924;2023-04-03T14:17:18;3.50;;;1.23;;
24547;SDS011;12713;51.624;4.924;2023-04-03T14:19:44;3.13;;;1.27;;
24547;SDS011;12713;51.624;4.924;2023-04-03T14:22:19;2.00;;;1.02;;
24547;SDS011;12713;51.624;4.924;2023-04-03T14:24:47;4.22;;;1.83;;
24547;SDS011;12713;51.624;4.924;2023-04-03T14:29:43;2.33;;;1.50;;
24547;SDS011;12713;51.624;4.924;2023-04-03T14:32:11;2.67;;;1.20;;
24547;SDS011;12713;51.624;4.924;2023-04-03T14:34:37;4.82;;;1.77;;
24547;SDS011;12713;51.624;4.924;2023-04-03T14:37:08;4.53;;;1.50;;
24547;SDS011;12713;51.624;4.924;2023-04-03T14:39:35;4.65;;;1.50;;
24547;SDS011;12713;51.624;4.924;2023-04-03T14:42:01;5.65;;;1.55;;
24547;SDS011;12713;51.624;4.924;2023-04-03T14:44:27;4.57;;;1.42;;
24547;SDS011;12713;51.624;4.924;2023-04-03T14:46:53;2.78;;;1.40;;
24547;SDS011;12713;51.624;4.924;2023-04-03T14:49:21;4.85;;;1.58;;
24547;SDS011;12713;51.624;4.924;2023-04-03T14:51:48;5.53;;;2.28;;
24547;SDS011;12713;51.624;4.924;2023-04-03T14:54:15;6.40;;;2.50;;
24547;SDS011;12713;51.624;4.924;2023-04-03T14:56:42;3.42;;;1.60;;
24547;SDS011;12713;51.624;4.924;2023-04-03T14:59:09;2.58;;;1.40;;
24547;SDS011;12713;51.624;4.924;2023-04-03T15:01:36;3.97;;;1.30;;
24547;SDS011;12713;51.624;4.924;2023-04-03T15:04:10;4.28;;;1.52;;
24547;SDS011;12713;51.624;4.924;2023-04-03T15:06:37;2.97;;;1.23;;
24547;SDS011;12713;51.624;4.924;2023-04-03T15:09:03;5.35;;;1.73;;
24547;SDS011;12713;51.624;4.924;2023-04-03T15:11:29;2.33;;;1.30;;
24547;SDS011;12713;51.624;4.924;2023-04-03T15:13:55;3.90;;;1.52;;
24547;SDS011;12713;51.624;4.924;2023-04-03T15:16:23;2.55;;;1.40;;
24547;SDS011;12713;51.624;4.924;2023-04-03T15:18:49;2.17;;;1.20;;
24547;SDS011;12713;51.624;4.924;2023-04-03T15:21:15;2.13;;;1.50;;
24547;SDS011;12713;51.624;4.924;2023-04-03T15:23:41;3.90;;;1.73;;
24547;SDS011;12713;51.624;4.924;2023-04-03T15:26:07;2.83;;;1.75;;
24547;SDS011;12713;51.624;4.924;2023-04-03T15:28:39;2.60;;;1.58;;
24547;SDS011;12713;51.624;4.924;2023-04-03T15:31:05;3.70;;;1.73;;
24547;SDS011;12713;51.624;4.924;2023-04-03T15:33:32;5.05;;;1.75;;
24547;SDS011;12713;51.624;4.924;2023-04-03T15:35:59;5.25;;;1.60;;
24547;SDS011;12713;51.624;4.924;2023-04-03T15:38:25;4.57;;;1.58;;
24547;SDS011;12713;51.624;4.924;2023-04-03T15:40:51;4.75;;;1.83;;
24547;SDS011;12713;51.624;4.924;2023-04-03T15:43:17;3.45;;;1.63;;
24547;SDS011;12713;51.624;4.924;2023-04-03T15:45:43;5.70;;;1.65;;
24547;SDS011;12713;51.624;4.924;2023-04-03T15:48:10;4.25;;;1.60;;
24547;SDS011;12713;51.624;4.924;2023-04-03T15:50:43;4.07;;;1.70;;
24547;SDS011;12713;51.624;4.924;2023-04-03T15:53:09;2.92;;;1.50;;
24547;SDS011;12713;51.624;4.924;2023-04-03T15:55:36;3.35;;;1.80;;
24547;SDS011;12713;51.624;4.924;2023-04-03T15:58:03;3.22;;;1.60;;
24547;SDS011;12713;51.624;4.924;2023-04-03T16:00:29;2.22;;;1.40;;
24547;SDS011;12713;51.624;4.924;2023-04-03T16:02:57;2.83;;;1.45;;
24547;SDS011;12713;51.624;4.924;2023-04-03T16:05:26;2.17;;;1.23;;
24547;SDS011;12713;51.624;4.924;2023-04-03T16:07:52;4.20;;;1.50;;
24547;SDS011;12713;51.624;4.924;2023-04-03T16:10:20;3.80;;;1.63;;
24547;SDS011;12713;51.624;4.924;2023-04-03T16:12:46;4.65;;;1.42;;
24547;SDS011;12713;51.624;4.924;2023-04-03T16:15:12;4.05;;;1.65;;
24547;SDS011;12713;51.624;4.924;2023-04-03T16:17:38;3.05;;;1.45;;
24547;SDS011;12713;51.624;4.924;2023-04-03T16:20:08;6.68;;;1.92;;
24547;SDS011;12713;51.624;4.924;2023-04-03T16:22:35;2.58;;;1.40;;
24547;SDS011;12713;51.624;4.924;2023-04-03T16:25:01;3.17;;;1.60;;
24547;SDS011;12713;51.624;4.924;2023-04-03T16:27:27;4.53;;;1.75;;
24547;SDS011;12713;51.624;4.924;2023-04-03T16:29:56;3.83;;;1.30;;
24547;SDS011;12713;51.624;4.924;2023-04-03T16:32:22;3.58;;;1.75;;